sensor_id;sensor_type;location;lat;lon;timestamp;P1;durP1;ratioP1;P2;durP2;ratioP2
56181;SDS011;51963;46.052;14.544;2023-03-23T00:01:56;12.77;;;7.63;;
56181;SDS011;51963;46.052;14.544;2023-03-23T00:04:22;13.20;;;7.50;;
56181;SDS011;51963;46.052;14.544;2023-03-23T00:06:52;12.75;;;7.22;;
56181;SDS011;51963;46.052;14.544;2023-03-23T00:09:18;13.07;;;7.35;;
56181;SDS011;51963;46.052;14.544;2023-03-23T00:11:49;14.43;;;8.32;;
56181;SDS011;51963;46.052;14.544;2023-03-23T00:14:16;14.13;;;7.53;;
56181;SDS011;51963;46.052;14.544;2023-03-23T00:16:47;12.45;;;7.88;;
56181;SDS011;51963;46.052;14.544;2023-03-23T00:19:14;10.80;;;6.72;;
56181;SDS011;51963;46.052;14.544;2023-03-23T00:21:40;17.60;;;8.07;;
56181;SDS011;51963;46.052;14.544;2023-03-23T00:24:09;13.43;;;8.43;;
56181;SDS011;51963;46.052;14.544;2023-03-23T00:26:37;13.90;;;8.23;;
56181;SDS011;51963;46.052;14.544;2023-03-23T00:29:18;14.75;;;8.68;;
56181;SDS011;51963;46.052;14.544;2023-03-23T00:31:49;14.60;;;8.18;;
56181;SDS011;51963;46.052;14.544;2023-03-23T00:34:16;15.43;;;8.40;;
56181;SDS011;51963;46.052;14.544;2023-03-23T00:36:48;15.48;;;8.52;;
56181;SDS011;51963;46.052;14.544;2023-03-23T00:39:17;15.98;;;8.65;;
56181;SDS011;51963;46.052;14.544;2023-03-23T00:41:46;14.65;;;8.65;;
56181;SDS011;51963;46.052;14.544;2023-03-23T00:44:13;18.92;;;10.75;;
56181;SDS011;51963;46.052;14.544;2023-03-23T00:46:46;19.13;;;9.82;;
56181;SDS011;51963;46.052;14.544;2023-03-23T00:49:20;17.50;;;9.18;;
56181;SDS011;51963;46.052;14.544;2023-03-23T00:51:50;17.23;;;10.02;;
56181;SDS011;51963;46.052;14.544;2023-03-23T00:54:17;14.02;;;8.40;;
56181;SDS011;51963;46.052;14.544;2023-03-23T00:56:43;18.63;;;8.77;;
56181;SDS011;51963;46.052;14.544;2023-03-23T00:59:08;16.42;;;9.77;;
56181;SDS011;51963;46.052;14.544;2023-03-23T01:01:34;13.13;;;8.25;;
56181;SDS011;51963;46.052;14.544;2023-03-23T01:04:02;19.27;;;9.43;;
56181;SDS011;51963;46.052;14.544;2023-03-23T01:06:33;16.90;;;9.75;;
56181;SDS011;51963;46.052;14.544;2023-03-23T01:09:10;16.08;;;8.40;;
56181;SDS011;51963;46.052;14.544;2023-03-23T01:11:40;17.75;;;9.23;;
56181;SDS011;51963;46.052;14.544;2023-03-23T01:14:07;16.48;;;8.98;;
56181;SDS011;51963;46.052;14.544;2023-03-23T01:16:36;15.52;;;8.70;;
56181;SDS011;51963;46.052;14.544;2023-03-23T01:19:05;14.63;;;8.95;;
56181;SDS011;51963;46.052;14.544;2023-03-23T01:21:30;19.38;;;9.93;;
56181;SDS011;51963;46.052;14.544;2023-03-23T01:23:57;14.65;;;8.50;;
56181;SDS011;51963;46.052;14.544;2023-03-23T01:26:24;15.30;;;8.55;;
56181;SDS011;51963;46.052;14.544;2023-03-23T01:28:52;15.05;;;8.23;;
56181;SDS011;51963;46.052;14.544;2023-03-23T01:31:19;11.85;;;7.30;;
56181;SDS011;51963;46.052;14.544;2023-03-23T01:36:17;15.75;;;8.00;;
56181;SDS011;51963;46.052;14.544;2023-03-23T01:38:46;13.85;;;7.35;;
56181;SDS011;51963;46.052;14.544;2023-03-23T01:41:16;22.35;;;9.55;;
56181;SDS011;51963;46.052;14.544;2023-03-23T01:46:28;14.73;;;8.35;;
56181;SDS011;51963;46.052;14.544;2023-03-23T01:51:23;13.88;;;7.47;;
56181;SDS011;51963;46.052;14.544;2023-03-23T01:53:56;11.82;;;7.32;;
56181;SDS011;51963;46.052;14.544;2023-03-23T01:56:29;13.70;;;8.27;;
56181;SDS011;51963;46.052;14.544;2023-03-23T01:58:59;15.38;;;8.65;;
56181;SDS011;51963;46.052;14.544;2023-03-23T02:01:25;11.77;;;7.60;;
56181;SDS011;51963;46.052;14.544;2023-03-23T02:03:52;10.93;;;7.13;;
56181;SDS011;51963;46.052;14.544;2023-03-23T02:06:20;14.65;;;7.80;;
56181;SDS011;51963;46.052;14.544;2023-03-23T02:09:15;11.70;;;7.22;;
56181;SDS011;51963;46.052;14.544;2023-03-23T02:11:47;14.30;;;7.07;;
56181;SDS011;51963;46.052;14.544;2023-03-23T02:14:16;13.55;;;7.68;;
56181;SDS011;51963;46.052;14.544;2023-03-23T02:34:07;12.10;;;6.85;;
56181;SDS011;51963;46.052;14.544;2023-03-23T02:36:52;15.68;;;9.40;;
56181;SDS011;51963;46.052;14.544;2023-03-23T02:39:30;14.63;;;9.15;;
56181;SDS011;51963;46.052;14.544;2023-03-23T02:42:02;15.45;;;8.82;;
56181;SDS011;51963;46.052;14.544;2023-03-23T02:44:31;14.18;;;7.38;;
56181;SDS011;51963;46.052;14.544;2023-03-23T02:46:59;13.65;;;8.10;;
56181;SDS011;51963;46.052;14.544;2023-03-23T02:49:29;13.65;;;7.50;;
56181;SDS011;51963;46.052;14.544;2023-03-23T02:52:01;12.98;;;7.70;;
56181;SDS011;51963;46.052;14.544;2023-03-23T02:54:33;13.07;;;7.97;;
56181;SDS011;51963;46.052;14.544;2023-03-23T02:57:01;16.97;;;7.70;;
56181;SDS011;51963;46.052;14.544;2023-03-23T03:04:28;15.75;;;8.70;;
56181;SDS011;51963;46.052;14.544;2023-03-23T03:07:01;17.70;;;9.25;;
56181;SDS011;51963;46.052;14.544;2023-03-23T03:09:50;16.90;;;9.75;;
56181;SDS011;51963;46.052;14.544;2023-03-23T03:17:45;17.80;;;8.80;;
56181;SDS011;51963;46.052;14.544;2023-03-23T03:20:18;20.17;;;8.80;;
56181;SDS011;51963;46.052;14.544;2023-03-23T03:22:46;20.25;;;10.48;;
56181;SDS011;51963;46.052;14.544;2023-03-23T03:25:13;16.98;;;10.10;;
56181;SDS011;51963;46.052;14.544;2023-03-23T03:27:45;20.23;;;9.52;;
56181;SDS011;51963;46.052;14.544;2023-03-23T03:30:22;19.20;;;10.50;;
56181;SDS011;51963;46.052;14.544;2023-03-23T03:32:53;19.75;;;10.02;;
56181;SDS011;51963;46.052;14.544;2023-03-23T03:35:21;18.67;;;10.05;;
56181;SDS011;51963;46.052;14.544;2023-03-23T03:40:17;22.77;;;10.70;;
56181;SDS011;51963;46.052;14.544;2023-03-23T03:42:45;17.63;;;9.85;;
56181;SDS011;51963;46.052;14.544;2023-03-23T03:45:12;22.02;;;10.43;;
56181;SDS011;51963;46.052;14.544;2023-03-23T03:47:40;17.48;;;10.52;;
56181;SDS011;51963;46.052;14.544;2023-03-23T03:50:06;18.05;;;9.88;;
56181;SDS011;51963;46.052;14.544;2023-03-23T03:52:33;22.10;;;10.23;;
56181;SDS011;51963;46.052;14.544;2023-03-23T03:54:59;18.65;;;10.05;;
56181;SDS011;51963;46.052;14.544;2023-03-23T03:57:26;19.38;;;10.40;;
56181;SDS011;51963;46.052;14.544;2023-03-23T03:59:52;20.35;;;10.80;;
56181;SDS011;51963;46.052;14.544;2023-03-23T04:02:36;18.02;;;10.15;;
56181;SDS011;51963;46.052;14.544;2023-03-23T04:05:02;19.63;;;10.50;;
56181;SDS011;51963;46.052;14.544;2023-03-23T04:07:30;18.57;;;10.37;;
56181;SDS011;51963;46.052;14.544;2023-03-23T04:10:03;19.33;;;10.38;;
56181;SDS011;51963;46.052;14.544;2023-03-23T04:12:31;19.23;;;10.30;;
56181;SDS011;51963;46.052;14.544;2023-03-23T04:14:59;19.75;;;11.38;;
56181;SDS011;51963;46.052;14.544;2023-03-23T04:17:30;21.17;;;11.50;;
56181;SDS011;51963;46.052;14.544;2023-03-23T04:19:56;21.67;;;11.65;;
56181;SDS011;51963;46.052;14.544;2023-03-23T04:22:24;18.17;;;10.35;;
56181;SDS011;51963;46.052;14.544;2023-03-23T04:24:57;20.58;;;11.05;;
56181;SDS011;51963;46.052;14.544;2023-03-23T04:27:24;18.75;;;11.07;;
56181;SDS011;51963;46.052;14.544;2023-03-23T04:29:54;18.92;;;10.35;;
56181;SDS011;51963;46.052;14.544;2023-03-23T04:32:50;20.63;;;11.23;;
56181;SDS011;51963;46.052;14.544;2023-03-23T04:35:21;21.10;;;11.55;;
56181;SDS011;51963;46.052;14.544;2023-03-23T04:38:01;22.33;;;12.52;;
56181;SDS011;51963;46.052;14.544;2023-03-23T04:40:27;20.27;;;12.23;;
56181;SDS011;51963;46.052;14.544;2023-03-23T04:43:03;20.75;;;11.63;;
56181;SDS011;51963;46.052;14.544;2023-03-23T04:45:53;25.15;;;12.73;;
56181;SDS011;51963;46.052;14.544;2023-03-23T04:48:24;22.35;;;12.48;;
56181;SDS011;51963;46.052;14.544;2023-03-23T04:51:03;25.95;;;13.40;;
56181;SDS011;51963;46.052;14.544;2023-03-23T04:53:30;22.17;;;13.10;;
56181;SDS011;51963;46.052;14.544;2023-03-23T04:55:57;22.88;;;12.57;;
56181;SDS011;51963;46.052;14.544;2023-03-23T04:58:24;21.42;;;12.25;;
56181;SDS011;51963;46.052;14.544;2023-03-23T05:01:13;22.77;;;12.65;;
56181;SDS011;51963;46.052;14.544;2023-03-23T05:03:47;21.40;;;12.60;;
56181;SDS011;51963;46.052;14.544;2023-03-23T05:06:15;22.67;;;12.55;;
56181;SDS011;51963;46.052;14.544;2023-03-23T05:08:42;25.08;;;13.98;;
56181;SDS011;51963;46.052;14.544;2023-03-23T05:11:07;23.27;;;13.05;;
56181;SDS011;51963;46.052;14.544;2023-03-23T05:13:38;23.10;;;13.07;;
56181;SDS011;51963;46.052;14.544;2023-03-23T05:16:06;23.70;;;12.15;;
56181;SDS011;51963;46.052;14.544;2023-03-23T05:18:34;27.73;;;14.90;;
56181;SDS011;51963;46.052;14.544;2023-03-23T05:21:03;24.50;;;14.00;;
56181;SDS011;51963;46.052;14.544;2023-03-23T05:23:34;21.55;;;12.43;;
56181;SDS011;51963;46.052;14.544;2023-03-23T05:26:10;26.15;;;14.32;;
56181;SDS011;51963;46.052;14.544;2023-03-23T05:28:35;25.00;;;14.07;;
56181;SDS011;51963;46.052;14.544;2023-03-23T05:31:08;25.85;;;14.80;;
56181;SDS011;51963;46.052;14.544;2023-03-23T05:33:35;26.38;;;14.25;;
56181;SDS011;51963;46.052;14.544;2023-03-23T05:36:09;26.80;;;14.30;;
56181;SDS011;51963;46.052;14.544;2023-03-23T05:39:05;26.92;;;14.20;;
56181;SDS011;51963;46.052;14.544;2023-03-23T05:41:49;24.23;;;13.57;;
56181;SDS011;51963;46.052;14.544;2023-03-23T05:44:15;29.58;;;16.08;;
56181;SDS011;51963;46.052;14.544;2023-03-23T05:46:45;28.08;;;14.85;;
56181;SDS011;51963;46.052;14.544;2023-03-23T05:49:13;29.83;;;15.50;;
56181;SDS011;51963;46.052;14.544;2023-03-23T05:51:42;25.70;;;14.55;;
56181;SDS011;51963;46.052;14.544;2023-03-23T05:54:09;26.98;;;14.70;;
56181;SDS011;51963;46.052;14.544;2023-03-23T05:56:36;24.88;;;14.65;;
56181;SDS011;51963;46.052;14.544;2023-03-23T05:59:25;32.38;;;15.77;;
56181;SDS011;51963;46.052;14.544;2023-03-23T06:01:54;27.40;;;14.60;;
56181;SDS011;51963;46.052;14.544;2023-03-23T06:04:25;27.70;;;15.85;;
56181;SDS011;51963;46.052;14.544;2023-03-23T06:07:17;26.50;;;14.43;;
56181;SDS011;51963;46.052;14.544;2023-03-23T06:09:52;27.05;;;14.95;;
56181;SDS011;51963;46.052;14.544;2023-03-23T06:12:21;26.60;;;15.00;;
56181;SDS011;51963;46.052;14.544;2023-03-23T06:14:57;29.30;;;14.63;;
56181;SDS011;51963;46.052;14.544;2023-03-23T06:17:34;26.10;;;14.02;;
56181;SDS011;51963;46.052;14.544;2023-03-23T06:20:02;26.67;;;14.18;;
56181;SDS011;51963;46.052;14.544;2023-03-23T06:22:29;26.25;;;13.90;;
56181;SDS011;51963;46.052;14.544;2023-03-23T06:25:15;29.15;;;13.35;;
56181;SDS011;51963;46.052;14.544;2023-03-23T06:27:46;26.27;;;14.02;;
56181;SDS011;51963;46.052;14.544;2023-03-23T06:30:12;29.13;;;13.88;;
56181;SDS011;51963;46.052;14.544;2023-03-23T06:32:41;26.77;;;13.93;;
56181;SDS011;51963;46.052;14.544;2023-03-23T06:35:10;24.42;;;13.73;;
56181;SDS011;51963;46.052;14.544;2023-03-23T06:38:08;26.25;;;13.38;;
56181;SDS011;51963;46.052;14.544;2023-03-23T06:40:42;25.63;;;14.35;;
56181;SDS011;51963;46.052;14.544;2023-03-23T06:43:13;26.38;;;13.70;;
56181;SDS011;51963;46.052;14.544;2023-03-23T06:45:51;28.52;;;13.40;;
56181;SDS011;51963;46.052;14.544;2023-03-23T06:48:38;27.40;;;14.47;;
56181;SDS011;51963;46.052;14.544;2023-03-23T06:51:04;30.42;;;15.32;;
56181;SDS011;51963;46.052;14.544;2023-03-23T06:53:31;27.75;;;15.63;;
56181;SDS011;51963;46.052;14.544;2023-03-23T06:55:59;26.13;;;14.88;;
56181;SDS011;51963;46.052;14.544;2023-03-23T06:58:25;31.02;;;15.07;;
56181;SDS011;51963;46.052;14.544;2023-03-23T07:00:55;30.27;;;14.77;;
56181;SDS011;51963;46.052;14.544;2023-03-23T07:03:26;26.63;;;14.15;;
56181;SDS011;51963;46.052;14.544;2023-03-23T07:05:54;27.65;;;14.05;;
56181;SDS011;51963;46.052;14.544;2023-03-23T07:08:23;29.00;;;13.88;;
56181;SDS011;51963;46.052;14.544;2023-03-23T07:10:53;26.35;;;14.68;;
56181;SDS011;51963;46.052;14.544;2023-03-23T07:13:24;33.25;;;15.20;;
56181;SDS011;51963;46.052;14.544;2023-03-23T07:15:59;27.13;;;15.10;;
56181;SDS011;51963;46.052;14.544;2023-03-23T07:18:26;25.67;;;14.60;;
56181;SDS011;51963;46.052;14.544;2023-03-23T07:20:54;30.37;;;15.67;;
56181;SDS011;51963;46.052;14.544;2023-03-23T07:23:28;32.47;;;14.90;;
56181;SDS011;51963;46.052;14.544;2023-03-23T07:26:02;28.50;;;15.68;;
56181;SDS011;51963;46.052;14.544;2023-03-23T07:28:49;30.33;;;15.45;;
56181;SDS011;51963;46.052;14.544;2023-03-23T07:31:24;27.80;;;16.10;;
56181;SDS011;51963;46.052;14.544;2023-03-23T07:33:50;27.70;;;15.02;;
56181;SDS011;51963;46.052;14.544;2023-03-23T07:36:17;30.23;;;15.38;;
56181;SDS011;51963;46.052;14.544;2023-03-23T07:38:43;26.50;;;15.63;;
56181;SDS011;51963;46.052;14.544;2023-03-23T07:41:09;27.30;;;14.80;;
56181;SDS011;51963;46.052;14.544;2023-03-23T07:43:38;31.00;;;16.52;;
56181;SDS011;51963;46.052;14.544;2023-03-23T07:46:09;30.27;;;15.93;;
56181;SDS011;51963;46.052;14.544;2023-03-23T07:48:50;29.75;;;15.98;;
56181;SDS011;51963;46.052;14.544;2023-03-23T07:51:20;33.15;;;17.70;;
56181;SDS011;51963;46.052;14.544;2023-03-23T07:53:49;30.17;;;17.05;;
56181;SDS011;51963;46.052;14.544;2023-03-23T07:56:40;28.70;;;17.50;;
56181;SDS011;51963;46.052;14.544;2023-03-23T07:59:12;31.08;;;16.70;;
56181;SDS011;51963;46.052;14.544;2023-03-23T08:01:40;28.17;;;16.52;;
56181;SDS011;51963;46.052;14.544;2023-03-23T08:04:29;28.75;;;16.17;;
56181;SDS011;51963;46.052;14.544;2023-03-23T08:07:16;37.72;;;17.70;;
56181;SDS011;51963;46.052;14.544;2023-03-23T08:09:56;28.42;;;16.38;;
56181;SDS011;51963;46.052;14.544;2023-03-23T08:12:25;25.13;;;16.08;;
56181;SDS011;51963;46.052;14.544;2023-03-23T08:15:25;24.52;;;15.80;;
56181;SDS011;51963;46.052;14.544;2023-03-23T08:18:18;22.02;;;14.98;;
56181;SDS011;51963;46.052;14.544;2023-03-23T08:20:53;23.77;;;15.73;;
56181;SDS011;51963;46.052;14.544;2023-03-23T08:23:30;25.40;;;14.82;;
56181;SDS011;51963;46.052;14.544;2023-03-23T08:26:09;25.90;;;16.10;;
56181;SDS011;51963;46.052;14.544;2023-03-23T08:28:58;22.88;;;15.18;;
56181;SDS011;51963;46.052;14.544;2023-03-23T08:31:54;22.80;;;15.07;;
56181;SDS011;51963;46.052;14.544;2023-03-23T08:34:29;22.90;;;14.88;;
56181;SDS011;51963;46.052;14.544;2023-03-23T08:37:28;25.25;;;14.70;;
56181;SDS011;51963;46.052;14.544;2023-03-23T08:40:00;23.83;;;14.95;;
56181;SDS011;51963;46.052;14.544;2023-03-23T08:43:02;25.55;;;14.80;;
56181;SDS011;51963;46.052;14.544;2023-03-23T08:45:46;22.35;;;14.02;;
56181;SDS011;51963;46.052;14.544;2023-03-23T08:48:32;19.20;;;13.52;;
56181;SDS011;51963;46.052;14.544;2023-03-23T08:51:19;22.00;;;13.63;;
56181;SDS011;51963;46.052;14.544;2023-03-23T08:54:10;22.95;;;13.50;;
56181;SDS011;51963;46.052;14.544;2023-03-23T08:57:09;20.58;;;14.02;;
56181;SDS011;51963;46.052;14.544;2023-03-23T09:00:10;20.55;;;14.38;;
56181;SDS011;51963;46.052;14.544;2023-03-23T09:03:16;23.93;;;14.10;;
56181;SDS011;51963;46.052;14.544;2023-03-23T09:06:01;23.60;;;13.90;;
56181;SDS011;51963;46.052;14.544;2023-03-23T09:08:37;20.85;;;13.60;;
56181;SDS011;51963;46.052;14.544;2023-03-23T09:11:03;23.17;;;13.82;;
56181;SDS011;51963;46.052;14.544;2023-03-23T09:13:34;21.35;;;13.63;;
56181;SDS011;51963;46.052;14.544;2023-03-23T09:16:01;22.23;;;13.35;;
56181;SDS011;51963;46.052;14.544;2023-03-23T09:18:28;18.07;;;12.47;;
56181;SDS011;51963;46.052;14.544;2023-03-23T09:20:54;21.63;;;12.90;;
56181;SDS011;51963;46.052;14.544;2023-03-23T09:23:20;20.67;;;12.48;;
56181;SDS011;51963;46.052;14.544;2023-03-23T09:25:47;23.25;;;13.00;;
56181;SDS011;51963;46.052;14.544;2023-03-23T09:28:15;21.98;;;12.85;;
56181;SDS011;51963;46.052;14.544;2023-03-23T09:30:41;17.58;;;11.95;;
56181;SDS011;51963;46.052;14.544;2023-03-23T09:33:07;17.33;;;12.52;;
56181;SDS011;51963;46.052;14.544;2023-03-23T09:35:34;27.73;;;13.18;;
56181;SDS011;51963;46.052;14.544;2023-03-23T09:38:02;24.67;;;14.05;;
56181;SDS011;51963;46.052;14.544;2023-03-23T09:40:32;24.90;;;13.27;;
56181;SDS011;51963;46.052;14.544;2023-03-23T09:51:20;21.35;;;13.25;;
56181;SDS011;51963;46.052;14.544;2023-03-23T09:56:24;17.05;;;12.43;;
56181;SDS011;51963;46.052;14.544;2023-03-23T09:59:12;24.33;;;12.20;;
56181;SDS011;51963;46.052;14.544;2023-03-23T10:01:45;18.58;;;12.27;;
56181;SDS011;51963;46.052;14.544;2023-03-23T10:04:17;21.73;;;12.60;;
56181;SDS011;51963;46.052;14.544;2023-03-23T10:06:53;18.40;;;11.77;;
56181;SDS011;51963;46.052;14.544;2023-03-23T10:09:24;20.55;;;11.90;;
56181;SDS011;51963;46.052;14.544;2023-03-23T10:17:14;21.37;;;12.73;;
56181;SDS011;51963;46.052;14.544;2023-03-23T10:19:55;22.90;;;12.35;;
56181;SDS011;51963;46.052;14.544;2023-03-23T10:23:12;20.58;;;12.93;;
56181;SDS011;51963;46.052;14.544;2023-03-23T10:25:41;19.42;;;12.45;;
56181;SDS011;51963;46.052;14.544;2023-03-23T10:28:12;22.25;;;12.20;;
56181;SDS011;51963;46.052;14.544;2023-03-23T10:30:54;20.70;;;11.40;;
56181;SDS011;51963;46.052;14.544;2023-03-23T10:36:25;19.60;;;12.43;;
56181;SDS011;51963;46.052;14.544;2023-03-23T10:38:59;19.45;;;10.68;;
56181;SDS011;51963;46.052;14.544;2023-03-23T10:41:33;19.02;;;11.80;;
56181;SDS011;51963;46.052;14.544;2023-03-23T10:43:59;14.50;;;11.00;;
56181;SDS011;51963;46.052;14.544;2023-03-23T10:46:43;20.00;;;10.35;;
56181;SDS011;51963;46.052;14.544;2023-03-23T10:49:15;13.95;;;9.80;;
56181;SDS011;51963;46.052;14.544;2023-03-23T10:51:53;11.25;;;7.50;;
56181;SDS011;51963;46.052;14.544;2023-03-23T10:54:26;10.68;;;5.70;;
56181;SDS011;51963;46.052;14.544;2023-03-23T10:56:59;7.30;;;5.72;;
56181;SDS011;51963;46.052;14.544;2023-03-23T10:59:29;9.35;;;5.60;;
56181;SDS011;51963;46.052;14.544;2023-03-23T11:02:00;8.45;;;5.22;;
56181;SDS011;51963;46.052;14.544;2023-03-23T11:04:28;10.68;;;5.75;;
56181;SDS011;51963;46.052;14.544;2023-03-23T11:07:00;7.35;;;5.70;;
56181;SDS011;51963;46.052;14.544;2023-03-23T11:09:38;7.15;;;4.85;;
56181;SDS011;51963;46.052;14.544;2023-03-23T11:12:17;7.68;;;5.05;;
56181;SDS011;51963;46.052;14.544;2023-03-23T11:14:48;8.63;;;5.10;;
56181;SDS011;51963;46.052;14.544;2023-03-23T11:17:22;7.68;;;4.18;;
56181;SDS011;51963;46.052;14.544;2023-03-23T11:19:50;7.60;;;5.15;;
56181;SDS011;51963;46.052;14.544;2023-03-23T11:22:26;6.65;;;4.82;;
56181;SDS011;51963;46.052;14.544;2023-03-23T11:25:01;7.85;;;5.03;;
56181;SDS011;51963;46.052;14.544;2023-03-23T11:27:29;6.40;;;5.20;;
56181;SDS011;51963;46.052;14.544;2023-03-23T11:29:57;8.02;;;5.20;;
56181;SDS011;51963;46.052;14.544;2023-03-23T11:32:28;6.65;;;4.05;;
56181;SDS011;51963;46.052;14.544;2023-03-23T11:34:59;8.73;;;4.85;;
56181;SDS011;51963;46.052;14.544;2023-03-23T11:37:32;8.15;;;5.07;;
56181;SDS011;51963;46.052;14.544;2023-03-23T11:50:52;6.80;;;4.60;;
56181;SDS011;51963;46.052;14.544;2023-03-23T11:56:09;5.30;;;4.35;;
56181;SDS011;51963;46.052;14.544;2023-03-23T11:58:41;7.53;;;4.30;;
56181;SDS011;51963;46.052;14.544;2023-03-23T12:06:57;7.03;;;4.10;;
56181;SDS011;51963;46.052;14.544;2023-03-23T12:12:38;6.80;;;4.35;;
56181;SDS011;51963;46.052;14.544;2023-03-23T12:18:14;5.85;;;4.10;;
56181;SDS011;51963;46.052;14.544;2023-03-23T12:26:45;4.53;;;3.40;;
56181;SDS011;51963;46.052;14.544;2023-03-23T12:29:21;10.77;;;4.22;;
56181;SDS011;51963;46.052;14.544;2023-03-23T12:35:13;5.97;;;3.80;;
56181;SDS011;51963;46.052;14.544;2023-03-23T12:45:55;6.82;;;3.85;;
56181;SDS011;51963;46.052;14.544;2023-03-23T12:48:33;7.45;;;4.13;;
56181;SDS011;51963;46.052;14.544;2023-03-23T12:51:10;3.88;;;3.47;;
56181;SDS011;51963;46.052;14.544;2023-03-23T12:53:48;5.10;;;4.00;;
56181;SDS011;51963;46.052;14.544;2023-03-23T13:01:37;6.68;;;3.92;;
56181;SDS011;51963;46.052;14.544;2023-03-23T13:04:20;7.78;;;3.58;;
56181;SDS011;51963;46.052;14.544;2023-03-23T13:06:51;5.22;;;3.92;;
56181;SDS011;51963;46.052;14.544;2023-03-23T13:09:23;5.15;;;3.70;;
56181;SDS011;51963;46.052;14.544;2023-03-23T13:11:56;5.57;;;3.90;;
56181;SDS011;51963;46.052;14.544;2023-03-23T13:23:15;4.72;;;3.25;;
56181;SDS011;51963;46.052;14.544;2023-03-23T13:25:50;5.93;;;3.85;;
56181;SDS011;51963;46.052;14.544;2023-03-23T13:28:23;5.78;;;3.40;;
56181;SDS011;51963;46.052;14.544;2023-03-23T13:30:54;6.28;;;3.55;;
56181;SDS011;51963;46.052;14.544;2023-03-23T13:33:39;6.85;;;3.88;;
56181;SDS011;51963;46.052;14.544;2023-03-23T13:36:12;7.70;;;3.42;;
56181;SDS011;51963;46.052;14.544;2023-03-23T13:41:14;6.88;;;3.70;;
56181;SDS011;51963;46.052;14.544;2023-03-23T13:43:42;4.82;;;3.17;;
56181;SDS011;51963;46.052;14.544;2023-03-23T13:48:45;6.75;;;3.53;;
56181;SDS011;51963;46.052;14.544;2023-03-23T13:54:14;4.45;;;2.90;;
56181;SDS011;51963;46.052;14.544;2023-03-23T14:01:52;3.55;;;2.67;;
56181;SDS011;51963;46.052;14.544;2023-03-23T14:04:19;5.88;;;3.10;;
56181;SDS011;51963;46.052;14.544;2023-03-23T14:06:49;4.07;;;3.13;;
56181;SDS011;51963;46.052;14.544;2023-03-23T14:09:31;3.60;;;2.92;;
56181;SDS011;51963;46.052;14.544;2023-03-23T14:12:13;3.53;;;2.90;;
56181;SDS011;51963;46.052;14.544;2023-03-23T14:14:46;4.90;;;2.60;;
56181;SDS011;51963;46.052;14.544;2023-03-23T14:17:19;5.15;;;2.78;;
56181;SDS011;51963;46.052;14.544;2023-03-23T14:19:51;4.57;;;2.85;;
56181;SDS011;51963;46.052;14.544;2023-03-23T14:22:31;6.03;;;3.33;;
56181;SDS011;51963;46.052;14.544;2023-03-23T14:24:59;4.68;;;3.20;;
56181;SDS011;51963;46.052;14.544;2023-03-23T14:27:35;4.28;;;3.45;;
56181;SDS011;51963;46.052;14.544;2023-03-23T14:30:25;5.25;;;3.42;;
56181;SDS011;51963;46.052;14.544;2023-03-23T14:32:51;5.20;;;3.28;;
56181;SDS011;51963;46.052;14.544;2023-03-23T14:37:49;6.25;;;3.97;;
56181;SDS011;51963;46.052;14.544;2023-03-23T14:40:16;5.93;;;3.40;;
56181;SDS011;51963;46.052;14.544;2023-03-23T14:42:42;6.25;;;4.28;;
56181;SDS011;51963;46.052;14.544;2023-03-23T14:45:17;6.15;;;4.38;;
56181;SDS011;51963;46.052;14.544;2023-03-23T14:47:48;5.97;;;3.55;;
56181;SDS011;51963;46.052;14.544;2023-03-23T14:53:13;9.30;;;6.07;;
56181;SDS011;51963;46.052;14.544;2023-03-23T14:55:42;6.35;;;4.53;;
56181;SDS011;51963;46.052;14.544;2023-03-23T14:58:12;4.78;;;3.72;;
56181;SDS011;51963;46.052;14.544;2023-03-23T15:00:41;9.52;;;4.25;;
56181;SDS011;51963;46.052;14.544;2023-03-23T15:03:30;6.65;;;3.80;;
56181;SDS011;51963;46.052;14.544;2023-03-23T15:06:01;5.57;;;3.92;;
56181;SDS011;51963;46.052;14.544;2023-03-23T15:08:36;6.65;;;3.10;;
56181;SDS011;51963;46.052;14.544;2023-03-23T15:13:41;6.95;;;5.30;;
56181;SDS011;51963;46.052;14.544;2023-03-23T15:16:16;5.03;;;3.60;;
56181;SDS011;51963;46.052;14.544;2023-03-23T15:18:55;4.25;;;3.85;;
56181;SDS011;51963;46.052;14.544;2023-03-23T15:21:34;10.18;;;3.40;;
56181;SDS011;51963;46.052;14.544;2023-03-23T15:27:11;4.93;;;3.50;;
56181;SDS011;51963;46.052;14.544;2023-03-23T15:29:48;6.05;;;3.40;;
56181;SDS011;51963;46.052;14.544;2023-03-23T15:32:37;5.13;;;3.20;;
56181;SDS011;51963;46.052;14.544;2023-03-23T15:35:13;4.88;;;3.00;;
56181;SDS011;51963;46.052;14.544;2023-03-23T15:37:48;4.30;;;3.22;;
56181;SDS011;51963;46.052;14.544;2023-03-23T15:40:21;4.68;;;3.47;;
56181;SDS011;51963;46.052;14.544;2023-03-23T15:42:48;7.57;;;2.70;;
56181;SDS011;51963;46.052;14.544;2023-03-23T15:45:19;3.55;;;2.50;;
56181;SDS011;51963;46.052;14.544;2023-03-23T15:47:49;4.60;;;3.08;;
56181;SDS011;51963;46.052;14.544;2023-03-23T15:50:20;2.93;;;2.60;;
56181;SDS011;51963;46.052;14.544;2023-03-23T15:52:59;5.15;;;2.72;;
56181;SDS011;51963;46.052;14.544;2023-03-23T15:55:36;7.18;;;2.95;;
56181;SDS011;51963;46.052;14.544;2023-03-23T15:58:07;4.35;;;2.97;;
56181;SDS011;51963;46.052;14.544;2023-03-23T16:00:35;4.82;;;2.75;;
56181;SDS011;51963;46.052;14.544;2023-03-23T16:03:03;3.85;;;2.83;;
56181;SDS011;51963;46.052;14.544;2023-03-23T16:05:30;5.80;;;2.65;;
56181;SDS011;51963;46.052;14.544;2023-03-23T16:07:57;3.63;;;2.95;;
56181;SDS011;51963;46.052;14.544;2023-03-23T16:10:23;5.50;;;2.80;;
56181;SDS011;51963;46.052;14.544;2023-03-23T16:12:50;5.03;;;3.10;;
56181;SDS011;51963;46.052;14.544;2023-03-23T16:15:17;6.18;;;3.03;;
56181;SDS011;51963;46.052;14.544;2023-03-23T16:17:43;4.10;;;2.97;;
56181;SDS011;51963;46.052;14.544;2023-03-23T16:20:12;5.30;;;3.00;;
56181;SDS011;51963;46.052;14.544;2023-03-23T16:22:39;5.10;;;3.20;;
56181;SDS011;51963;46.052;14.544;2023-03-23T16:25:05;5.47;;;3.30;;
56181;SDS011;51963;46.052;14.544;2023-03-23T16:27:31;5.80;;;3.72;;
56181;SDS011;51963;46.052;14.544;2023-03-23T16:29:57;4.95;;;3.28;;
56181;SDS011;51963;46.052;14.544;2023-03-23T16:32:25;7.63;;;3.70;;
56181;SDS011;51963;46.052;14.544;2023-03-23T16:34:51;8.00;;;3.63;;
56181;SDS011;51963;46.052;14.544;2023-03-23T16:37:16;7.05;;;3.60;;
56181;SDS011;51963;46.052;14.544;2023-03-23T16:39:42;7.78;;;3.20;;
56181;SDS011;51963;46.052;14.544;2023-03-23T16:42:11;8.88;;;3.90;;
56181;SDS011;51963;46.052;14.544;2023-03-23T16:44:47;5.65;;;3.40;;
56181;SDS011;51963;46.052;14.544;2023-03-23T16:47:15;6.38;;;3.90;;
56181;SDS011;51963;46.052;14.544;2023-03-23T16:49:43;10.70;;;3.83;;
56181;SDS011;51963;46.052;14.544;2023-03-23T16:52:09;8.63;;;4.10;;
56181;SDS011;51963;46.052;14.544;2023-03-23T16:57:03;7.00;;;3.22;;
56181;SDS011;51963;46.052;14.544;2023-03-23T16:59:28;7.95;;;4.40;;
56181;SDS011;51963;46.052;14.544;2023-03-23T17:01:54;7.40;;;3.90;;
56181;SDS011;51963;46.052;14.544;2023-03-23T17:04:24;9.38;;;3.97;;
56181;SDS011;51963;46.052;14.544;2023-03-23T17:06:50;6.20;;;4.10;;
56181;SDS011;51963;46.052;14.544;2023-03-23T17:09:16;7.30;;;3.80;;
56181;SDS011;51963;46.052;14.544;2023-03-23T17:11:41;8.88;;;4.07;;